Cardville, Maine
Current Conditions -  °F | °C
As of 6:53 AM on Thursday 23 Oct 2014 (Local Time) from KBGR Reporting Station
Moderate Rain Moderate Rain  
Wind Chill: 42°   Ceiling: 1000
Heat Index: 48°   Visibility: 5mi
Dew Point: 46°   Wind: 14mph
Humidity: 93%   Direction: 30°NNE
Pressure: 29.97"   Gusts: NA
Location:  45.05°N, 68.6°W
Report Text: KBGR 231053Z 03012KT 5SM RA BR BKN010 BKN014 OVC019 09/08 A2997 RMK AO2 CIG 007V013 SLP147 P0015 T00890078
Loading
Personal Weather Stations






























Interactive Weather Map
Tropical Storm Tracking
New forecast layout! Learn more

10-Day Weather Forecast

Advertisements
Track Severe Weather on mobile